sensor_id;sensor_type;location;lat;lon;timestamp;temperature;humidity
13416;DHT22;6779;50.150;8.680;2022-09-16T00:00:13;15.50;1.00
13416;DHT22;6779;50.150;8.680;2022-09-16T00:02:40;15.50;1.00
13416;DHT22;6779;50.150;8.680;2022-09-16T00:05:07;15.50;1.00
13416;DHT22;6779;50.150;8.680;2022-09-16T00:07:33;15.50;1.00
13416;DHT22;6779;50.150;8.680;2022-09-16T00:09:58;15.50;1.00
13416;DHT22;6779;50.150;8.680;2022-09-16T00:12:24;15.50;1.00
13416;DHT22;6779;50.150;8.680;2022-09-16T00:14:53;15.50;1.00
13416;DHT22;6779;50.150;8.680;2022-09-16T00:17:20;15.50;1.00
13416;DHT22;6779;50.150;8.680;2022-09-16T00:19:45;15.40;1.00
13416;DHT22;6779;50.150;8.680;2022-09-16T00:22:11;15.40;1.00
13416;DHT22;6779;50.150;8.680;2022-09-16T00:24:37;15.40;1.00
13416;DHT22;6779;50.150;8.680;2022-09-16T00:27:03;15.40;1.00
13416;DHT22;6779;50.150;8.680;2022-09-16T00:29:29;15.40;1.00
13416;DHT22;6779;50.150;8.680;2022-09-16T00:31:54;15.40;1.00
13416;DHT22;6779;50.150;8.680;2022-09-16T00:34:20;15.40;1.00
13416;DHT22;6779;50.150;8.680;2022-09-16T00:36:45;15.40;1.00
13416;DHT22;6779;50.150;8.680;2022-09-16T00:39:11;15.40;99.90
13416;DHT22;6779;50.150;8.680;2022-09-16T00:41:36;15.40;1.00
13416;DHT22;6779;50.150;8.680;2022-09-16T00:44:05;15.30;99.90
13416;DHT22;6779;50.150;8.680;2022-09-16T00:46:44;15.30;1.00
13416;DHT22;6779;50.150;8.680;2022-09-16T00:49:22;15.20;99.90
13416;DHT22;6779;50.150;8.680;2022-09-16T00:51:52;15.20;99.90
13416;DHT22;6779;50.150;8.680;2022-09-16T00:54:19;15.20;99.90
13416;DHT22;6779;50.150;8.680;2022-09-16T00:56:47;15.20;99.90
13416;DHT22;6779;50.150;8.680;2022-09-16T00:59:23;15.10;99.90
13416;DHT22;6779;50.150;8.680;2022-09-16T01:01:51;15.10;99.90
13416;DHT22;6779;50.150;8.680;2022-09-16T01:04:21;15.10;99.90
13416;DHT22;6779;50.150;8.680;2022-09-16T01:06:48;15.20;99.90
13416;DHT22;6779;50.150;8.680;2022-09-16T01:09:15;15.20;99.90
13416;DHT22;6779;50.150;8.680;2022-09-16T01:11:42;15.00;99.90
13416;DHT22;6779;50.150;8.680;2022-09-16T01:14:07;15.00;1.00
13416;DHT22;6779;50.150;8.680;2022-09-16T01:17:06;15.00;1.00
13416;DHT22;6779;50.150;8.680;2022-09-16T01:26:11;15.00;99.90
13416;DHT22;6779;50.150;8.680;2022-09-16T01:28:48;15.00;99.90
13416;DHT22;6779;50.150;8.680;2022-09-16T01:34:44;14.90;99.90
13416;DHT22;6779;50.150;8.680;2022-09-16T01:37:22;14.90;99.90
13416;DHT22;6779;50.150;8.680;2022-09-16T01:40:11;14.90;99.90
13416;DHT22;6779;50.150;8.680;2022-09-16T01:45:53;14.80;99.90
13416;DHT22;6779;50.150;8.680;2022-09-16T01:48:41;14.90;99.90
13416;DHT22;6779;50.150;8.680;2022-09-16T01:54:04;14.90;99.90
13416;DHT22;6779;50.150;8.680;2022-09-16T01:56:41;14.90;99.90
13416;DHT22;6779;50.150;8.680;2022-09-16T01:59:45;14.80;99.90
13416;DHT22;6779;50.150;8.680;2022-09-16T02:02:26;14.80;99.90
13416;DHT22;6779;50.150;8.680;2022-09-16T02:04:55;14.90;99.90
13416;DHT22;6779;50.150;8.680;2022-09-16T02:07:26;14.90;99.90
13416;DHT22;6779;50.150;8.680;2022-09-16T02:09:59;14.90;99.90
13416;DHT22;6779;50.150;8.680;2022-09-16T02:12:29;14.80;99.90
13416;DHT22;6779;50.150;8.680;2022-09-16T02:15:01;14.90;1.00
13416;DHT22;6779;50.150;8.680;2022-09-16T02:17:31;14.90;99.90
13416;DHT22;6779;50.150;8.680;2022-09-16T02:20:18;14.90;99.90
13416;DHT22;6779;50.150;8.680;2022-09-16T02:22:52;14.80;99.90
13416;DHT22;6779;50.150;8.680;2022-09-16T02:25:20;14.70;99.90
13416;DHT22;6779;50.150;8.680;2022-09-16T02:27:47;14.60;99.90
13416;DHT22;6779;50.150;8.680;2022-09-16T02:30:20;14.60;1.00
13416;DHT22;6779;50.150;8.680;2022-09-16T02:32:53;14.60;99.90
13416;DHT22;6779;50.150;8.680;2022-09-16T02:35:21;14.70;1.00
13416;DHT22;6779;50.150;8.680;2022-09-16T02:38:00;14.70;1.00
13416;DHT22;6779;50.150;8.680;2022-09-16T02:40:33;14.60;99.90
13416;DHT22;6779;50.150;8.680;2022-09-16T02:43:00;14.60;99.90
13416;DHT22;6779;50.150;8.680;2022-09-16T02:45:44;14.60;99.90
13416;DHT22;6779;50.150;8.680;2022-09-16T02:48:19;14.60;1.00
13416;DHT22;6779;50.150;8.680;2022-09-16T02:50:55;14.60;1.00
13416;DHT22;6779;50.150;8.680;2022-09-16T02:53:51;14.60;1.00
13416;DHT22;6779;50.150;8.680;2022-09-16T02:56:35;14.60;1.00
13416;DHT22;6779;50.150;8.680;2022-09-16T02:59:02;14.50;1.00
13416;DHT22;6779;50.150;8.680;2022-09-16T03:01:30;14.50;1.00
13416;DHT22;6779;50.150;8.680;2022-09-16T03:03:58;14.50;1.00
13416;DHT22;6779;50.150;8.680;2022-09-16T03:06:25;14.60;99.90
13416;DHT22;6779;50.150;8.680;2022-09-16T03:08:53;14.50;93.70
13416;DHT22;6779;50.150;8.680;2022-09-16T03:17:11;14.40;99.90
13416;DHT22;6779;50.150;8.680;2022-09-16T03:19:58;14.40;99.90
13416;DHT22;6779;50.150;8.680;2022-09-16T03:22:47;14.50;99.90
13416;DHT22;6779;50.150;8.680;2022-09-16T03:25:31;14.50;99.40
13416;DHT22;6779;50.150;8.680;2022-09-16T03:28:09;14.50;99.90
13416;DHT22;6779;50.150;8.680;2022-09-16T03:30:59;14.40;13.00
13416;DHT22;6779;50.150;8.680;2022-09-16T03:33:45;14.40;1.00
13416;DHT22;6779;50.150;8.680;2022-09-16T03:36:14;14.30;91.30
13416;DHT22;6779;50.150;8.680;2022-09-16T03:38:43;14.30;64.40
13416;DHT22;6779;50.150;8.680;2022-09-16T03:41:09;14.30;99.90
13416;DHT22;6779;50.150;8.680;2022-09-16T03:43:35;14.40;99.90
13416;DHT22;6779;50.150;8.680;2022-09-16T03:46:01;14.40;66.80
13416;DHT22;6779;50.150;8.680;2022-09-16T03:48:26;14.40;99.90
13416;DHT22;6779;50.150;8.680;2022-09-16T03:50:52;14.40;99.90
13416;DHT22;6779;50.150;8.680;2022-09-16T03:53:18;14.40;99.90
13416;DHT22;6779;50.150;8.680;2022-09-16T03:55:43;14.50;99.90
13416;DHT22;6779;50.150;8.680;2022-09-16T03:58:09;14.40;99.90
13416;DHT22;6779;50.150;8.680;2022-09-16T04:00:34;14.40;1.00
13416;DHT22;6779;50.150;8.680;2022-09-16T04:03:01;14.40;52.70
13416;DHT22;6779;50.150;8.680;2022-09-16T04:05:27;14.30;99.90
13416;DHT22;6779;50.150;8.680;2022-09-16T04:07:53;14.20;1.00
13416;DHT22;6779;50.150;8.680;2022-09-16T04:10:18;14.20;99.90
13416;DHT22;6779;50.150;8.680;2022-09-16T04:12:44;14.30;1.00
13416;DHT22;6779;50.150;8.680;2022-09-16T04:15:09;14.30;99.90
13416;DHT22;6779;50.150;8.680;2022-09-16T04:17:35;14.20;1.00
13416;DHT22;6779;50.150;8.680;2022-09-16T04:20:02;14.30;99.90
13416;DHT22;6779;50.150;8.680;2022-09-16T04:22:28;14.30;1.00
13416;DHT22;6779;50.150;8.680;2022-09-16T04:24:55;14.20;1.00
13416;DHT22;6779;50.150;8.680;2022-09-16T04:27:20;14.20;99.90
13416;DHT22;6779;50.150;8.680;2022-09-16T04:29:46;14.20;99.90
13416;DHT22;6779;50.150;8.680;2022-09-16T04:32:11;14.20;1.00
13416;DHT22;6779;50.150;8.680;2022-09-16T04:34:37;14.10;1.00
13416;DHT22;6779;50.150;8.680;2022-09-16T04:37:02;14.10;1.00
13416;DHT22;6779;50.150;8.680;2022-09-16T04:39:28;14.10;10.00
13416;DHT22;6779;50.150;8.680;2022-09-16T04:41:54;14.10;99.90
13416;DHT22;6779;50.150;8.680;2022-09-16T04:44:20;14.10;99.90
13416;DHT22;6779;50.150;8.680;2022-09-16T04:46:45;14.10;99.90
13416;DHT22;6779;50.150;8.680;2022-09-16T04:49:11;14.10;99.90
13416;DHT22;6779;50.150;8.680;2022-09-16T04:51:37;14.10;79.30
13416;DHT22;6779;50.150;8.680;2022-09-16T04:54:02;14.10;99.90
13416;DHT22;6779;50.150;8.680;2022-09-16T04:56:30;14.10;99.90
13416;DHT22;6779;50.150;8.680;2022-09-16T04:59:02;14.00;99.90
13416;DHT22;6779;50.150;8.680;2022-09-16T05:01:38;14.00;99.90
13416;DHT22;6779;50.150;8.680;2022-09-16T05:04:05;14.10;99.90
13416;DHT22;6779;50.150;8.680;2022-09-16T05:06:33;14.10;1.00
13416;DHT22;6779;50.150;8.680;2022-09-16T05:08:59;14.00;38.60
13416;DHT22;6779;50.150;8.680;2022-09-16T05:11:28;14.00;1.00
13416;DHT22;6779;50.150;8.680;2022-09-16T05:13:57;13.90;1.00
13416;DHT22;6779;50.150;8.680;2022-09-16T05:16:23;14.00;99.90
13416;DHT22;6779;50.150;8.680;2022-09-16T05:18:52;14.00;1.00
13416;DHT22;6779;50.150;8.680;2022-09-16T05:21:20;13.90;1.00
13416;DHT22;6779;50.150;8.680;2022-09-16T05:23:46;13.90;99.90
13416;DHT22;6779;50.150;8.680;2022-09-16T05:26:19;13.90;31.90
13416;DHT22;6779;50.150;8.680;2022-09-16T05:28:45;13.80;1.00
13416;DHT22;6779;50.150;8.680;2022-09-16T05:31:25;13.90;1.00
13416;DHT22;6779;50.150;8.680;2022-09-16T05:33:58;14.00;99.90
13416;DHT22;6779;50.150;8.680;2022-09-16T05:36:25;13.90;99.90
13416;DHT22;6779;50.150;8.680;2022-09-16T05:38:51;13.90;99.90
13416;DHT22;6779;50.150;8.680;2022-09-16T05:41:17;13.90;99.90
13416;DHT22;6779;50.150;8.680;2022-09-16T05:43:42;13.90;1.00
13416;DHT22;6779;50.150;8.680;2022-09-16T05:46:15;13.90;99.90
13416;DHT22;6779;50.150;8.680;2022-09-16T05:48:41;14.00;1.00
13416;DHT22;6779;50.150;8.680;2022-09-16T05:51:07;14.00;1.00
13416;DHT22;6779;50.150;8.680;2022-09-16T05:53:33;14.00;1.00
13416;DHT22;6779;50.150;8.680;2022-09-16T05:56:03;13.90;99.90
13416;DHT22;6779;50.150;8.680;2022-09-16T05:58:30;14.00;94.90
13416;DHT22;6779;50.150;8.680;2022-09-16T06:01:04;13.90;78.50
13416;DHT22;6779;50.150;8.680;2022-09-16T06:03:32;14.00;1.00
13416;DHT22;6779;50.150;8.680;2022-09-16T06:08:31;14.10;99.90
13416;DHT22;6779;50.150;8.680;2022-09-16T06:11:00;14.00;99.90
13416;DHT22;6779;50.150;8.680;2022-09-16T06:13:26;14.10;1.00
13416;DHT22;6779;50.150;8.680;2022-09-16T06:15:52;14.10;18.80
13416;DHT22;6779;50.150;8.680;2022-09-16T06:18:21;14.10;99.90
13416;DHT22;6779;50.150;8.680;2022-09-16T06:20:48;14.10;26.70
13416;DHT22;6779;50.150;8.680;2022-09-16T06:23:14;14.10;1.00
13416;DHT22;6779;50.150;8.680;2022-09-16T06:25:39;14.10;99.90
13416;DHT22;6779;50.150;8.680;2022-09-16T06:28:05;14.10;99.90
13416;DHT22;6779;50.150;8.680;2022-09-16T06:30:31;14.20;99.90
13416;DHT22;6779;50.150;8.680;2022-09-16T06:32:56;14.20;99.90
13416;DHT22;6779;50.150;8.680;2022-09-16T06:35:22;14.30;99.90
13416;DHT22;6779;50.150;8.680;2022-09-16T06:37:47;14.30;1.00
13416;DHT22;6779;50.150;8.680;2022-09-16T06:40:13;14.30;99.90
13416;DHT22;6779;50.150;8.680;2022-09-16T06:42:38;14.30;99.90
13416;DHT22;6779;50.150;8.680;2022-09-16T06:45:05;14.30;99.90
13416;DHT22;6779;50.150;8.680;2022-09-16T06:47:31;14.40;99.90
13416;DHT22;6779;50.150;8.680;2022-09-16T06:49:58;14.40;1.00
13416;DHT22;6779;50.150;8.680;2022-09-16T06:52:24;14.50;1.00
13416;DHT22;6779;50.150;8.680;2022-09-16T06:54:49;14.60;1.00
13416;DHT22;6779;50.150;8.680;2022-09-16T06:57:15;14.60;1.00
13416;DHT22;6779;50.150;8.680;2022-09-16T06:59:42;14.60;99.90
13416;DHT22;6779;50.150;8.680;2022-09-16T07:02:09;14.60;99.90
13416;DHT22;6779;50.150;8.680;2022-09-16T07:04:35;14.50;99.90
13416;DHT22;6779;50.150;8.680;2022-09-16T07:07:00;14.60;99.90
13416;DHT22;6779;50.150;8.680;2022-09-16T07:09:26;14.70;99.90
13416;DHT22;6779;50.150;8.680;2022-09-16T07:11:51;14.80;17.70
13416;DHT22;6779;50.150;8.680;2022-09-16T07:14:17;14.90;99.90
13416;DHT22;6779;50.150;8.680;2022-09-16T07:16:42;14.90;99.90
13416;DHT22;6779;50.150;8.680;2022-09-16T07:19:08;14.80;99.90
13416;DHT22;6779;50.150;8.680;2022-09-16T07:21:33;14.90;1.00
13416;DHT22;6779;50.150;8.680;2022-09-16T07:24:00;14.90;99.90
13416;DHT22;6779;50.150;8.680;2022-09-16T07:26:32;14.90;99.90
13416;DHT22;6779;50.150;8.680;2022-09-16T07:29:00;14.90;1.00
13416;DHT22;6779;50.150;8.680;2022-09-16T07:31:28;14.90;1.00
13416;DHT22;6779;50.150;8.680;2022-09-16T07:33:56;14.90;1.00
13416;DHT22;6779;50.150;8.680;2022-09-16T07:36:25;14.90;1.00
13416;DHT22;6779;50.150;8.680;2022-09-16T07:38:51;14.90;1.00
13416;DHT22;6779;50.150;8.680;2022-09-16T07:41:20;15.00;99.90
13416;DHT22;6779;50.150;8.680;2022-09-16T07:43:46;15.00;99.90
13416;DHT22;6779;50.150;8.680;2022-09-16T07:46:13;15.10;99.90
13416;DHT22;6779;50.150;8.680;2022-09-16T07:48:41;15.20;99.90
13416;DHT22;6779;50.150;8.680;2022-09-16T07:51:09;15.20;99.90
13416;DHT22;6779;50.150;8.680;2022-09-16T07:53:35;15.20;99.90
13416;DHT22;6779;50.150;8.680;2022-09-16T07:56:05;15.10;99.90
13416;DHT22;6779;50.150;8.680;2022-09-16T07:58:30;15.20;99.90
13416;DHT22;6779;50.150;8.680;2022-09-16T08:00:56;15.20;99.90
13416;DHT22;6779;50.150;8.680;2022-09-16T08:03:22;15.30;99.90
13416;DHT22;6779;50.150;8.680;2022-09-16T08:05:47;15.30;99.90
13416;DHT22;6779;50.150;8.680;2022-09-16T08:08:13;15.50;99.90
13416;DHT22;6779;50.150;8.680;2022-09-16T08:10:39;15.50;99.90
13416;DHT22;6779;50.150;8.680;2022-09-16T08:13:05;15.70;99.90
13416;DHT22;6779;50.150;8.680;2022-09-16T08:15:31;15.80;99.90
13416;DHT22;6779;50.150;8.680;2022-09-16T08:17:57;15.80;99.90
13416;DHT22;6779;50.150;8.680;2022-09-16T08:20:22;15.90;99.90
13416;DHT22;6779;50.150;8.680;2022-09-16T08:22:49;15.80;89.70
13416;DHT22;6779;50.150;8.680;2022-09-16T08:25:15;15.70;86.00
13416;DHT22;6779;50.150;8.680;2022-09-16T08:27:40;15.80;98.10
13416;DHT22;6779;50.150;8.680;2022-09-16T08:30:06;15.90;67.20
13416;DHT22;6779;50.150;8.680;2022-09-16T08:32:32;16.00;96.20
13416;DHT22;6779;50.150;8.680;2022-09-16T08:34:57;16.10;21.90
13416;DHT22;6779;50.150;8.680;2022-09-16T08:37:23;16.10;1.00
13416;DHT22;6779;50.150;8.680;2022-09-16T08:39:49;16.40;1.00
13416;DHT22;6779;50.150;8.680;2022-09-16T08:43:03;16.40;1.00
13416;DHT22;6779;50.150;8.680;2022-09-16T08:45:55;16.30;1.00
13416;DHT22;6779;50.150;8.680;2022-09-16T08:48:33;16.30;1.00
13416;DHT22;6779;50.150;8.680;2022-09-16T08:51:04;16.20;1.00
13416;DHT22;6779;50.150;8.680;2022-09-16T08:53:37;16.00;1.00
13416;DHT22;6779;50.150;8.680;2022-09-16T08:56:09;16.20;1.00
13416;DHT22;6779;50.150;8.680;2022-09-16T08:58:42;16.50;1.00
13416;DHT22;6779;50.150;8.680;2022-09-16T09:03:42;18.40;1.00
13416;DHT22;6779;50.150;8.680;2022-09-16T09:09:45;19.50;1.00
13416;DHT22;6779;50.150;8.680;2022-09-16T09:20:56;24.80;99.90
13416;DHT22;6779;50.150;8.680;2022-09-16T09:26:25;24.40;99.90
13416;DHT22;6779;50.150;8.680;2022-09-16T09:31:58;21.70;99.90
13416;DHT22;6779;50.150;8.680;2022-09-16T09:43:11;20.20;99.90
13416;DHT22;6779;50.150;8.680;2022-09-16T09:46:02;20.00;99.90
13416;DHT22;6779;50.150;8.680;2022-09-16T09:48:37;19.40;99.90
13416;DHT22;6779;50.150;8.680;2022-09-16T09:51:10;18.90;99.90
13416;DHT22;6779;50.150;8.680;2022-09-16T09:53:44;18.50;99.90
13416;DHT22;6779;50.150;8.680;2022-09-16T09:56:19;18.20;99.90
13416;DHT22;6779;50.150;8.680;2022-09-16T09:59:02;18.20;99.90
13416;DHT22;6779;50.150;8.680;2022-09-16T10:01:29;19.00;99.90
13416;DHT22;6779;50.150;8.680;2022-09-16T10:03:55;19.60;99.90
13416;DHT22;6779;50.150;8.680;2022-09-16T10:06:32;19.20;99.90
13416;DHT22;6779;50.150;8.680;2022-09-16T10:08:58;18.60;99.90
13416;DHT22;6779;50.150;8.680;2022-09-16T10:11:28;18.00;99.90
13416;DHT22;6779;50.150;8.680;2022-09-16T10:13:58;17.50;99.90
13416;DHT22;6779;50.150;8.680;2022-09-16T10:19:24;17.20;99.90
13416;DHT22;6779;50.150;8.680;2022-09-16T10:22:29;17.30;99.90
13416;DHT22;6779;50.150;8.680;2022-09-16T10:25:00;17.40;99.90
13416;DHT22;6779;50.150;8.680;2022-09-16T10:27:31;17.40;99.90
13416;DHT22;6779;50.150;8.680;2022-09-16T10:30:04;17.40;99.90
13416;DHT22;6779;50.150;8.680;2022-09-16T10:32:29;17.30;99.90
13416;DHT22;6779;50.150;8.680;2022-09-16T10:34:55;17.40;99.90
13416;DHT22;6779;50.150;8.680;2022-09-16T10:37:21;17.50;99.90
13416;DHT22;6779;50.150;8.680;2022-09-16T10:39:53;17.30;99.90
13416;DHT22;6779;50.150;8.680;2022-09-16T10:42:22;17.30;99.90
13416;DHT22;6779;50.150;8.680;2022-09-16T10:44:50;17.10;99.90
13416;DHT22;6779;50.150;8.680;2022-09-16T10:47:25;17.10;99.90
13416;DHT22;6779;50.150;8.680;2022-09-16T10:49:57;17.00;99.90
13416;DHT22;6779;50.150;8.680;2022-09-16T10:52:28;17.20;99.90
13416;DHT22;6779;50.150;8.680;2022-09-16T10:54:54;17.40;99.90
13416;DHT22;6779;50.150;8.680;2022-09-16T10:57:31;17.50;99.90
13416;DHT22;6779;50.150;8.680;2022-09-16T11:00:03;17.60;99.90
13416;DHT22;6779;50.150;8.680;2022-09-16T11:03:28;18.00;99.90
13416;DHT22;6779;50.150;8.680;2022-09-16T11:06:20;18.20;99.90
13416;DHT22;6779;50.150;8.680;2022-09-16T11:09:02;20.40;99.90
13416;DHT22;6779;50.150;8.680;2022-09-16T11:17:08;25.30;99.90
13416;DHT22;6779;50.150;8.680;2022-09-16T11:30:46;22.60;99.90
13416;DHT22;6779;50.150;8.680;2022-09-16T11:36:36;20.90;99.90
13416;DHT22;6779;50.150;8.680;2022-09-16T11:42:27;19.90;99.90
13416;DHT22;6779;50.150;8.680;2022-09-16T11:47:43;18.90;99.90
13416;DHT22;6779;50.150;8.680;2022-09-16T11:56:20;17.30;99.90
13416;DHT22;6779;50.150;8.680;2022-09-16T11:58:55;16.90;1.60
13416;DHT22;6779;50.150;8.680;2022-09-16T12:01:41;16.60;48.60
13416;DHT22;6779;50.150;8.680;2022-09-16T12:04:27;16.20;99.90
13416;DHT22;6779;50.150;8.680;2022-09-16T12:06:57;15.90;99.90
13416;DHT22;6779;50.150;8.680;2022-09-16T12:09:39;15.60;99.90
13416;DHT22;6779;50.150;8.680;2022-09-16T12:12:17;15.30;99.90
13416;DHT22;6779;50.150;8.680;2022-09-16T12:14:54;15.10;83.30
13416;DHT22;6779;50.150;8.680;2022-09-16T12:17:30;15.20;45.10
13416;DHT22;6779;50.150;8.680;2022-09-16T12:22:42;15.50;1.00
13416;DHT22;6779;50.150;8.680;2022-09-16T12:25:27;15.60;99.90
13416;DHT22;6779;50.150;8.680;2022-09-16T12:28:10;15.60;1.00
13416;DHT22;6779;50.150;8.680;2022-09-16T12:30:41;15.50;99.90
13416;DHT22;6779;50.150;8.680;2022-09-16T12:33:23;15.50;57.60
13416;DHT22;6779;50.150;8.680;2022-09-16T12:38:28;15.60;99.90
13416;DHT22;6779;50.150;8.680;2022-09-16T12:46:41;16.40;99.90
13416;DHT22;6779;50.150;8.680;2022-09-16T12:49:23;16.50;1.00
13416;DHT22;6779;50.150;8.680;2022-09-16T12:54:28;16.70;99.90
13416;DHT22;6779;50.150;8.680;2022-09-16T12:57:19;17.20;99.90
13416;DHT22;6779;50.150;8.680;2022-09-16T13:00:04;17.50;99.90
13416;DHT22;6779;50.150;8.680;2022-09-16T13:02:41;17.70;99.90
13416;DHT22;6779;50.150;8.680;2022-09-16T13:05:20;17.90;98.80
13416;DHT22;6779;50.150;8.680;2022-09-16T13:07:55;18.00;39.10
13416;DHT22;6779;50.150;8.680;2022-09-16T13:10:30;18.20;1.00
13416;DHT22;6779;50.150;8.680;2022-09-16T13:13:00;18.20;1.00
13416;DHT22;6779;50.150;8.680;2022-09-16T13:15:31;18.20;1.00
13416;DHT22;6779;50.150;8.680;2022-09-16T13:18:27;18.10;1.00
13416;DHT22;6779;50.150;8.680;2022-09-16T13:21:19;18.00;1.00
13416;DHT22;6779;50.150;8.680;2022-09-16T13:23:52;17.90;1.00
13416;DHT22;6779;50.150;8.680;2022-09-16T13:26:21;18.00;1.00
13416;DHT22;6779;50.150;8.680;2022-09-16T13:28:47;18.20;1.00
13416;DHT22;6779;50.150;8.680;2022-09-16T13:33:41;18.40;1.00
13416;DHT22;6779;50.150;8.680;2022-09-16T13:38:49;18.00;1.00
13416;DHT22;6779;50.150;8.680;2022-09-16T13:41:38;18.00;1.00
13416;DHT22;6779;50.150;8.680;2022-09-16T13:49:55;18.40;1.00
13416;DHT22;6779;50.150;8.680;2022-09-16T13:52:28;18.00;1.00
13416;DHT22;6779;50.150;8.680;2022-09-16T13:54:54;17.60;1.00
13416;DHT22;6779;50.150;8.680;2022-09-16T13:57:42;17.40;1.00
13416;DHT22;6779;50.150;8.680;2022-09-16T14:03:15;17.30;1.00
13416;DHT22;6779;50.150;8.680;2022-09-16T14:06:03;17.40;1.00
13416;DHT22;6779;50.150;8.680;2022-09-16T14:14:27;17.10;1.00
13416;DHT22;6779;50.150;8.680;2022-09-16T14:16:55;17.10;1.00
13416;DHT22;6779;50.150;8.680;2022-09-16T14:24:38;17.30;1.00
13416;DHT22;6779;50.150;8.680;2022-09-16T14:27:16;17.40;1.00
13416;DHT22;6779;50.150;8.680;2022-09-16T14:32:23;17.70;1.00
13416;DHT22;6779;50.150;8.680;2022-09-16T14:34:49;17.90;1.00
13416;DHT22;6779;50.150;8.680;2022-09-16T14:37:17;18.20;1.00
13416;DHT22;6779;50.150;8.680;2022-09-16T14:39:43;18.30;1.00
13416;DHT22;6779;50.150;8.680;2022-09-16T14:42:15;18.10;1.00
13416;DHT22;6779;50.150;8.680;2022-09-16T14:44:47;17.80;1.00
13416;DHT22;6779;50.150;8.680;2022-09-16T14:49:53;17.90;1.00
13416;DHT22;6779;50.150;8.680;2022-09-16T14:52:23;17.90;1.00
13416;DHT22;6779;50.150;8.680;2022-09-16T14:54:50;17.80;1.00
13416;DHT22;6779;50.150;8.680;2022-09-16T14:57:20;17.60;1.00
13416;DHT22;6779;50.150;8.680;2022-09-16T14:59:54;17.40;1.00
13416;DHT22;6779;50.150;8.680;2022-09-16T15:05:23;17.40;1.00
13416;DHT22;6779;50.150;8.680;2022-09-16T15:07:52;17.60;1.00
13416;DHT22;6779;50.150;8.680;2022-09-16T15:10:21;17.70;1.00
13416;DHT22;6779;50.150;8.680;2022-09-16T15:12:50;17.80;1.00
13416;DHT22;6779;50.150;8.680;2022-09-16T15:15:32;18.00;1.00
13416;DHT22;6779;50.150;8.680;2022-09-16T15:18:02;17.80;99.90
13416;DHT22;6779;50.150;8.680;2022-09-16T15:20:38;17.50;99.90
13416;DHT22;6779;50.150;8.680;2022-09-16T15:23:06;17.20;99.90
13416;DHT22;6779;50.150;8.680;2022-09-16T15:25:33;16.80;99.90
13416;DHT22;6779;50.150;8.680;2022-09-16T15:28:18;16.30;1.00
13416;DHT22;6779;50.150;8.680;2022-09-16T15:30:49;16.00;1.00
13416;DHT22;6779;50.150;8.680;2022-09-16T15:33:31;15.70;1.00
13416;DHT22;6779;50.150;8.680;2022-09-16T15:35:57;15.50;1.00
13416;DHT22;6779;50.150;8.680;2022-09-16T15:38:23;15.40;1.00
13416;DHT22;6779;50.150;8.680;2022-09-16T15:41:00;15.40;1.00
13416;DHT22;6779;50.150;8.680;2022-09-16T15:43:28;15.30;1.00
13416;DHT22;6779;50.150;8.680;2022-09-16T15:46:03;15.20;1.00
13416;DHT22;6779;50.150;8.680;2022-09-16T15:48:33;15.20;1.00
13416;DHT22;6779;50.150;8.680;2022-09-16T15:51:25;15.10;1.00
13416;DHT22;6779;50.150;8.680;2022-09-16T15:53:50;15.20;1.00
13416;DHT22;6779;50.150;8.680;2022-09-16T16:01:56;14.80;26.20
13416;DHT22;6779;50.150;8.680;2022-09-16T16:04:28;14.80;63.30
13416;DHT22;6779;50.150;8.680;2022-09-16T16:12:00;14.80;99.90
13416;DHT22;6779;50.150;8.680;2022-09-16T16:14:27;14.80;99.90
13416;DHT22;6779;50.150;8.680;2022-09-16T16:17:04;14.80;77.90
13416;DHT22;6779;50.150;8.680;2022-09-16T16:19:30;14.90;61.60
13416;DHT22;6779;50.150;8.680;2022-09-16T16:21:56;14.90;76.80
13416;DHT22;6779;50.150;8.680;2022-09-16T16:24:26;15.00;9.00
13416;DHT22;6779;50.150;8.680;2022-09-16T16:26:52;14.90;1.00
13416;DHT22;6779;50.150;8.680;2022-09-16T16:29:18;14.90;10.90
13416;DHT22;6779;50.150;8.680;2022-09-16T16:32:04;15.00;45.60
13416;DHT22;6779;50.150;8.680;2022-09-16T16:34:34;15.20;53.60
13416;DHT22;6779;50.150;8.680;2022-09-16T16:37:00;15.10;12.70
13416;DHT22;6779;50.150;8.680;2022-09-16T16:39:26;15.10;1.10
13416;DHT22;6779;50.150;8.680;2022-09-16T16:41:52;15.00;1.00
13416;DHT22;6779;50.150;8.680;2022-09-16T16:44:19;15.10;12.90
13416;DHT22;6779;50.150;8.680;2022-09-16T16:46:46;15.10;9.80
13416;DHT22;6779;50.150;8.680;2022-09-16T16:49:11;15.00;1.00
13416;DHT22;6779;50.150;8.680;2022-09-16T16:51:37;15.00;1.00
13416;DHT22;6779;50.150;8.680;2022-09-16T16:54:03;15.00;1.00
13416;DHT22;6779;50.150;8.680;2022-09-16T16:56:28;14.90;1.00
13416;DHT22;6779;50.150;8.680;2022-09-16T16:58:54;14.90;1.00
13416;DHT22;6779;50.150;8.680;2022-09-16T17:01:19;14.90;1.00
13416;DHT22;6779;50.150;8.680;2022-09-16T17:03:46;14.80;1.00
13416;DHT22;6779;50.150;8.680;2022-09-16T17:06:15;14.80;1.00
13416;DHT22;6779;50.150;8.680;2022-09-16T17:08:41;14.70;1.00
13416;DHT22;6779;50.150;8.680;2022-09-16T17:11:15;14.70;1.00
13416;DHT22;6779;50.150;8.680;2022-09-16T17:13:43;14.70;1.00
13416;DHT22;6779;50.150;8.680;2022-09-16T17:16:11;14.70;1.00
13416;DHT22;6779;50.150;8.680;2022-09-16T17:18:38;14.60;1.00
13416;DHT22;6779;50.150;8.680;2022-09-16T17:21:16;14.50;1.00
13416;DHT22;6779;50.150;8.680;2022-09-16T17:23:42;14.50;1.00
13416;DHT22;6779;50.150;8.680;2022-09-16T17:26:08;14.40;1.00
13416;DHT22;6779;50.150;8.680;2022-09-16T17:28:35;14.40;1.00
13416;DHT22;6779;50.150;8.680;2022-09-16T17:31:08;14.40;1.00
13416;DHT22;6779;50.150;8.680;2022-09-16T17:33:34;14.30;1.00
13416;DHT22;6779;50.150;8.680;2022-09-16T17:36:01;14.30;1.00
13416;DHT22;6779;50.150;8.680;2022-09-16T17:38:27;14.20;1.00
13416;DHT22;6779;50.150;8.680;2022-09-16T17:41:00;14.20;1.00
13416;DHT22;6779;50.150;8.680;2022-09-16T17:43:25;14.20;1.00
13416;DHT22;6779;50.150;8.680;2022-09-16T17:45:51;14.20;1.00
13416;DHT22;6779;50.150;8.680;2022-09-16T17:48:17;14.20;1.00
13416;DHT22;6779;50.150;8.680;2022-09-16T17:50:44;14.20;1.00
13416;DHT22;6779;50.150;8.680;2022-09-16T17:53:13;14.20;1.00
13416;DHT22;6779;50.150;8.680;2022-09-16T17:55:39;14.10;1.00
13416;DHT22;6779;50.150;8.680;2022-09-16T17:58:04;14.10;1.00
13416;DHT22;6779;50.150;8.680;2022-09-16T18:00:30;14.10;1.00
13416;DHT22;6779;50.150;8.680;2022-09-16T18:02:55;14.00;1.00
13416;DHT22;6779;50.150;8.680;2022-09-16T18:05:21;13.90;1.00
13416;DHT22;6779;50.150;8.680;2022-09-16T18:07:46;13.90;1.00
13416;DHT22;6779;50.150;8.680;2022-09-16T18:10:12;13.90;1.00
13416;DHT22;6779;50.150;8.680;2022-09-16T18:12:38;13.80;1.00
13416;DHT22;6779;50.150;8.680;2022-09-16T18:15:03;13.80;21.00
13416;DHT22;6779;50.150;8.680;2022-09-16T18:17:29;13.90;1.00
13416;DHT22;6779;50.150;8.680;2022-09-16T18:19:55;13.90;1.00
13416;DHT22;6779;50.150;8.680;2022-09-16T18:22:20;13.70;1.00
13416;DHT22;6779;50.150;8.680;2022-09-16T18:24:46;13.70;1.00
13416;DHT22;6779;50.150;8.680;2022-09-16T18:27:11;13.60;1.00
13416;DHT22;6779;50.150;8.680;2022-09-16T18:29:37;13.60;1.00
13416;DHT22;6779;50.150;8.680;2022-09-16T18:32:04;13.70;1.00
13416;DHT22;6779;50.150;8.680;2022-09-16T18:34:30;13.60;1.00
13416;DHT22;6779;50.150;8.680;2022-09-16T18:36:56;13.50;20.50
13416;DHT22;6779;50.150;8.680;2022-09-16T18:39:21;13.50;89.00